createdAt,value
2018-02-18T00:00:43.296Z,80.97
2018-02-18T00:03:10.932Z,78.42
2018-02-18T00:05:38.457Z,81.20
2018-02-18T00:08:05.994Z,83.38
2018-02-18T00:10:33.575Z,82.71
2018-02-18T00:13:01.094Z,81.81
2018-02-18T00:15:28.666Z,80.55
2018-02-18T00:17:56.212Z,80.93
2018-02-18T00:20:23.727Z,80.96
2018-02-18T00:22:51.248Z,80.44
2018-02-18T00:25:19.132Z,80.63
2018-02-18T00:27:46.630Z,77.12
2018-02-18T00:30:14.245Z,78.02
2018-02-18T00:32:41.747Z,79.37
2018-02-18T00:35:09.250Z,80.22
2018-02-18T00:37:36.738Z,80.84
2018-02-18T00:40:04.302Z,80.82
2018-02-18T00:42:31.823Z,82.23
2018-02-18T00:44:59.333Z,82.22
2018-02-18T00:47:26.860Z,81.77
2018-02-18T00:49:54.384Z,82.79
2018-02-18T00:52:21.866Z,81.65
2018-02-18T00:54:49.346Z,80.73
2018-02-18T00:57:16.826Z,81.69
2018-02-18T00:59:44.352Z,82.80
2018-02-18T01:02:11.869Z,82.92
2018-02-18T01:04:39.374Z,82.86
2018-02-18T01:07:06.894Z,82.76
2018-02-18T01:09:34.389Z,82.37
2018-02-18T01:12:01.902Z,83.13
2018-02-18T01:14:29.412Z,83.23
2018-02-18T01:16:56.950Z,83.19
2018-02-18T01:19:24.440Z,82.72
2018-02-18T01:21:51.947Z,80.97
2018-02-18T01:24:19.445Z,80.79
2018-02-18T01:26:46.953Z,81.24
2018-02-18T01:29:14.466Z,82.10
2018-02-18T01:31:41.972Z,80.00
2018-02-18T01:34:09.479Z,80.71
2018-02-18T01:36:37.003Z,82.13
2018-02-18T01:39:04.699Z,81.92
2018-02-18T01:41:32.198Z,82.60
2018-02-18T01:43:59.749Z,82.44
2018-02-18T01:46:27.251Z,82.18
2018-02-18T01:48:54.789Z,82.39
2018-02-18T01:51:22.290Z,82.67
2018-02-18T01:53:50.645Z,82.65
2018-02-18T01:56:18.192Z,82.58
2018-02-18T01:58:46.615Z,83.25
2018-02-18T02:01:14.154Z,83.33
2018-02-18T02:03:41.675Z,82.58
2018-02-18T02:06:09.195Z,82.78
2018-02-18T02:08:36.688Z,82.87
2018-02-18T02:11:04.233Z,85.31
2018-02-18T02:13:31.800Z,84.25
2018-02-18T02:15:59.367Z,84.38
2018-02-18T02:18:26.918Z,84.56
2018-02-18T02:20:54.401Z,85.44
2018-02-18T02:23:21.899Z,86.38
2018-02-18T02:25:49.428Z,86.08
2018-02-18T02:28:16.955Z,85.64
2018-02-18T02:30:44.481Z,86.61
2018-02-18T02:33:11.983Z,85.90
2018-02-18T02:35:39.512Z,85.99
2018-02-18T02:38:07.071Z,86.23
2018-02-18T02:40:34.600Z,86.47
2018-02-18T02:43:02.229Z,86.73
2018-02-18T02:45:29.750Z,86.90
2018-02-18T02:47:57.308Z,86.98
2018-02-18T02:50:24.810Z,87.11
2018-02-18T02:52:52.326Z,87.22
2018-02-18T02:55:19.870Z,87.28
2018-02-18T02:57:47.421Z,87.42
2018-02-18T03:00:14.928Z,87.61
2018-02-18T03:02:42.454Z,87.96
2018-02-18T03:05:09.943Z,88.21
2018-02-18T03:07:37.473Z,88.83
2018-02-18T03:10:05.020Z,89.44
2018-02-18T03:12:32.529Z,89.38
2018-02-18T03:15:00.048Z,89.43
2018-02-18T03:17:27.525Z,89.15
2018-02-18T03:19:55.011Z,89.14
2018-02-18T03:22:22.596Z,88.99
2018-02-18T03:24:50.092Z,89.23
2018-02-18T03:27:17.588Z,89.65
2018-02-18T03:29:45.109Z,89.58
2018-02-18T03:32:12.622Z,89.15
2018-02-18T03:34:40.124Z,89.51
2018-02-18T03:37:07.657Z,89.68
2018-02-18T03:39:35.812Z,89.73
2018-02-18T03:42:03.306Z,89.83
2018-02-18T03:44:30.841Z,90.60
2018-02-18T03:46:58.438Z,90.45
2018-02-18T03:49:25.968Z,90.06
2018-02-18T03:51:53.474Z,89.79
2018-02-18T03:54:21.015Z,89.96
2018-02-18T03:56:48.529Z,90.07
2018-02-18T03:59:16.120Z,90.54
2018-02-18T04:01:43.614Z,90.73
2018-02-18T04:04:11.090Z,90.67
2018-02-18T04:06:38.602Z,90.98
2018-02-18T04:09:06.147Z,90.58
2018-02-18T04:11:33.689Z,91.62
2018-02-18T04:14:01.236Z,91.24
2018-02-18T04:16:28.752Z,90.72
2018-02-18T04:18:56.287Z,90.85
2018-02-18T04:21:23.786Z,90.73
2018-02-18T04:23:51.266Z,91.30
2018-02-18T04:26:18.857Z,91.27
2018-02-18T04:28:46.396Z,91.10
2018-02-18T04:31:14.060Z,91.66
2018-02-18T04:33:41.600Z,91.72
2018-02-18T04:36:09.138Z,91.63
2018-02-18T04:38:36.658Z,91.63
2018-02-18T04:41:04.142Z,91.75
2018-02-18T04:43:31.642Z,91.74
2018-02-18T04:45:59.244Z,92.08
2018-02-18T04:48:26.742Z,92.34
2018-02-18T04:50:54.276Z,92.59
2018-02-18T04:53:21.822Z,93.53
2018-02-18T04:55:49.368Z,93.42
2018-02-18T04:58:16.897Z,93.26
2018-02-18T05:00:44.444Z,93.31
2018-02-18T05:03:11.989Z,93.80
2018-02-18T05:05:39.493Z,93.58
2018-02-18T05:08:07.658Z,93.93
2018-02-18T05:10:35.175Z,93.83
2018-02-18T05:13:02.654Z,93.68
2018-02-18T05:15:30.201Z,94.19
2018-02-18T05:17:57.697Z,95.06
2018-02-18T05:20:25.220Z,94.47
2018-02-18T05:22:52.740Z,94.54
2018-02-18T05:25:20.274Z,94.81
2018-02-18T05:27:47.805Z,94.99
2018-02-18T05:30:15.302Z,94.63
2018-02-18T05:32:42.862Z,94.40
2018-02-18T05:35:10.364Z,94.40
2018-02-18T05:37:37.874Z,95.07
2018-02-18T05:40:05.606Z,94.79
2018-02-18T05:42:33.102Z,95.08
2018-02-18T05:45:02.543Z,94.71
2018-02-18T05:47:30.095Z,95.20
2018-02-18T05:49:57.658Z,95.33
2018-02-18T05:52:25.156Z,95.34
2018-02-18T05:54:52.824Z,95.30
2018-02-18T05:57:20.295Z,94.94
2018-02-18T05:59:47.821Z,94.90
2018-02-18T06:02:15.380Z,95.56
2018-02-18T06:04:42.928Z,95.45
2018-02-18T06:07:10.443Z,95.50
2018-02-18T06:09:38.045Z,96.18
2018-02-18T06:12:05.553Z,96.00
2018-02-18T06:14:33.162Z,95.73
2018-02-18T06:17:00.673Z,96.14
2018-02-18T06:19:28.234Z,96.00
2018-02-18T06:21:55.767Z,95.77
2018-02-18T06:24:23.307Z,95.66
2018-02-18T06:26:51.951Z,95.45
2018-02-18T06:29:19.605Z,95.44
2018-02-18T06:31:47.110Z,95.31
2018-02-18T06:34:14.628Z,95.75
2018-02-18T06:36:42.117Z,95.89
2018-02-18T06:39:09.673Z,95.71
2018-02-18T06:41:37.167Z,95.44
2018-02-18T06:44:04.714Z,95.19
2018-02-18T06:46:32.218Z,95.59
2018-02-18T06:48:59.711Z,95.51
2018-02-18T06:51:27.196Z,95.73
2018-02-18T06:53:54.937Z,96.08
2018-02-18T06:56:22.418Z,95.78
2018-02-18T06:58:49.949Z,95.60
2018-02-18T07:01:17.636Z,95.49
2018-02-18T07:03:45.258Z,95.05
2018-02-18T07:06:12.790Z,95.29
2018-02-18T07:08:41.972Z,94.91
2018-02-18T07:11:09.588Z,94.51
2018-02-18T07:13:37.073Z,93.73
2018-02-18T07:16:04.605Z,93.33
2018-02-18T07:18:32.150Z,92.88
2018-02-18T07:20:59.638Z,90.88
2018-02-18T07:23:27.133Z,89.77
2018-02-18T07:25:54.651Z,87.70
2018-02-18T07:28:22.160Z,86.71
2018-02-18T07:30:49.655Z,85.41
2018-02-18T07:33:17.210Z,84.48
2018-02-18T07:35:44.846Z,86.22
2018-02-18T07:38:12.445Z,87.13
2018-02-18T07:40:40.062Z,86.09
2018-02-18T07:43:08.596Z,86.70
2018-02-18T07:45:37.486Z,85.80
2018-02-18T07:48:06.166Z,86.21
2018-02-18T07:50:33.772Z,84.52
2018-02-18T07:53:09.380Z,82.55
2018-02-18T07:55:37.397Z,80.97
2018-02-18T07:58:04.954Z,79.88
2018-02-18T08:00:34.876Z,78.79
2018-02-18T08:03:03.534Z,77.14
2018-02-18T08:05:31.194Z,77.27
2018-02-18T08:07:58.729Z,74.41
2018-02-18T08:10:26.320Z,72.46
2018-02-18T08:12:53.854Z,70.99
2018-02-18T08:15:21.396Z,71.64
2018-02-18T08:17:49.068Z,73.49
2018-02-18T08:20:16.585Z,69.65
2018-02-18T08:22:44.110Z,67.76
2018-02-18T08:25:11.602Z,65.97
2018-02-18T08:27:39.129Z,66.77
2018-02-18T08:30:08.128Z,65.98
2018-02-18T08:32:35.894Z,63.84
2018-02-18T08:35:03.427Z,63.57
2018-02-18T08:37:30.979Z,62.36
2018-02-18T08:39:58.477Z,60.53
2018-02-18T08:42:26.032Z,62.96
2018-02-18T08:44:54.372Z,59.23
2018-02-18T08:47:21.876Z,58.48
2018-02-18T08:49:49.408Z,59.99
2018-02-18T08:52:17.697Z,57.16
2018-02-18T08:54:45.439Z,53.88
2018-02-18T08:57:14.431Z,53.25
2018-02-18T09:02:14.096Z,55.58
2018-02-18T09:04:41.758Z,58.47
2018-02-18T09:07:13.471Z,57.94
2018-02-18T09:09:42.114Z,56.47
2018-02-18T09:12:09.954Z,59.80
2018-02-18T09:14:37.462Z,59.64
2018-02-18T09:17:05.554Z,57.37
2018-02-18T09:19:33.646Z,55.95
2018-02-18T09:22:01.969Z,56.08
2018-02-18T09:24:29.499Z,56.48
2018-02-18T09:26:57.037Z,58.42
2018-02-18T09:29:24.514Z,54.26
2018-02-18T09:31:52.142Z,52.40
2018-02-18T09:34:19.761Z,53.67
2018-02-18T09:36:47.300Z,52.81
2018-02-18T09:39:14.856Z,52.05
2018-02-18T09:41:42.422Z,53.90
2018-02-18T09:44:10.029Z,53.26
2018-02-18T09:46:37.612Z,53.72
2018-02-18T09:49:05.134Z,54.76
2018-02-18T09:51:32.748Z,51.96
2018-02-18T09:54:00.416Z,53.52
2018-02-18T09:56:27.990Z,51.82
2018-02-18T09:58:55.531Z,50.70
2018-02-18T10:01:25.950Z,48.03
2018-02-18T10:03:53.513Z,46.86
2018-02-18T10:06:21.105Z,48.98
2018-02-18T10:08:49.258Z,51.78
2018-02-18T10:11:19.025Z,52.50
2018-02-18T10:13:46.728Z,51.16
2018-02-18T10:16:14.310Z,51.23
2018-02-18T10:18:41.860Z,54.31
2018-02-18T10:21:10.275Z,54.34
2018-02-18T10:23:37.887Z,56.16
2018-02-18T10:26:05.400Z,55.65
2018-02-18T10:28:32.998Z,56.89
2018-02-18T10:31:00.573Z,59.08
2018-02-18T10:33:28.129Z,55.92
2018-02-18T10:35:55.725Z,58.89
2018-02-18T10:38:23.308Z,59.33
2018-02-18T10:40:50.829Z,61.08
2018-02-18T10:43:18.325Z,60.12
2018-02-18T10:45:45.992Z,60.81
2018-02-18T10:48:13.651Z,59.71
2018-02-18T10:50:41.242Z,61.24
2018-02-18T10:53:08.845Z,60.50
2018-02-18T10:55:36.475Z,59.67
2018-02-18T11:03:57.568Z,61.50
2018-02-18T11:06:26.442Z,60.23
2018-02-18T11:08:54.274Z,61.00
2018-02-18T11:11:21.831Z,61.79
2018-02-18T11:13:49.528Z,62.58
2018-02-18T11:16:17.148Z,62.64
2018-02-18T11:18:44.686Z,63.91
2018-02-18T11:21:12.308Z,62.66
2018-02-18T11:23:39.958Z,64.28
2018-02-18T11:26:07.492Z,62.16
2018-02-18T11:28:35.188Z,64.66
2018-02-18T11:31:03.526Z,62.78
2018-02-18T11:33:31.172Z,63.09
2018-02-18T11:35:59.426Z,59.73
2018-02-18T11:38:26.958Z,62.49
2018-02-18T11:40:55.480Z,61.86
2018-02-18T11:43:23.543Z,63.24
2018-02-18T11:45:51.606Z,62.40
2018-02-18T11:48:19.867Z,61.03
2018-02-18T11:50:49.384Z,61.26
2018-02-18T11:53:18.042Z,60.89
2018-02-18T11:55:45.918Z,62.34
2018-02-18T11:58:14.876Z,60.49
2018-02-18T12:00:43.052Z,62.90
2018-02-18T12:03:11.550Z,61.70
2018-02-18T12:05:39.176Z,60.52
2018-02-18T12:08:07.145Z,59.96
2018-02-18T12:10:36.182Z,60.35
2018-02-18T12:13:04.360Z,61.32
2018-02-18T12:15:32.534Z,62.29
2018-02-18T12:18:00.708Z,61.36
2018-02-18T12:20:28.787Z,61.34
2018-02-18T12:22:56.322Z,61.32
2018-02-18T12:25:24.025Z,61.80
2018-02-18T12:27:53.401Z,61.45
2018-02-18T12:30:21.679Z,62.14
2018-02-18T12:32:52.718Z,62.58
2018-02-18T12:35:20.996Z,62.74
2018-02-18T12:37:48.697Z,61.03
2018-02-18T12:40:17.561Z,60.37
2018-02-18T12:42:46.016Z,61.22
2018-02-18T12:45:15.687Z,60.00
2018-02-18T12:47:43.297Z,60.54
2018-02-18T12:50:10.869Z,61.01
2018-02-18T12:52:38.435Z,61.04
2018-02-18T12:55:05.978Z,61.13
2018-02-18T12:57:33.598Z,62.34
2018-02-18T13:00:01.029Z,60.53
2018-02-18T13:02:28.587Z,62.05
2018-02-18T13:04:56.186Z,60.75
2018-02-18T13:07:23.775Z,60.97
2018-02-18T13:09:51.299Z,62.02
2018-02-18T13:12:18.868Z,61.77
2018-02-18T13:14:46.416Z,61.76
2018-02-18T13:17:14.029Z,61.67
2018-02-18T13:19:41.592Z,62.82
2018-02-18T13:22:09.179Z,61.65
2018-02-18T13:24:36.737Z,63.81
2018-02-18T13:27:04.370Z,63.22
2018-02-18T13:29:32.008Z,63.31
2018-02-18T13:31:59.520Z,62.19
2018-02-18T13:34:27.104Z,63.72
2018-02-18T13:36:54.636Z,63.94
2018-02-18T13:39:22.181Z,62.72
2018-02-18T13:41:49.840Z,62.43
2018-02-18T13:44:17.406Z,63.48
2018-02-18T13:46:44.971Z,63.17
2018-02-18T13:49:12.590Z,62.03
2018-02-18T13:51:40.192Z,61.46
2018-02-18T13:54:07.843Z,61.81
2018-02-18T13:56:35.524Z,62.52
2018-02-18T13:59:03.325Z,62.00
2018-02-18T14:01:31.021Z,63.17
2018-02-18T14:03:58.581Z,63.50
2018-02-18T14:06:26.448Z,62.02
2018-02-18T14:08:55.473Z,63.35
2018-02-18T14:11:23.134Z,61.85
2018-02-18T14:13:50.688Z,62.52
2018-02-18T14:16:18.279Z,61.66
2018-02-18T14:18:46.521Z,62.23
2018-02-18T14:21:14.172Z,61.37
2018-02-18T14:23:41.777Z,60.62
2018-02-18T14:26:09.400Z,60.58
2018-02-18T14:28:36.976Z,60.79
2018-02-18T14:31:04.611Z,61.86
2018-02-18T14:33:32.258Z,62.96
2018-02-18T14:36:00.061Z,61.70
2018-02-18T14:38:27.678Z,60.98
2018-02-18T14:40:55.229Z,61.39
2018-02-18T14:43:34.520Z,62.40
2018-02-18T14:46:13.823Z,61.91
2018-02-18T14:48:53.198Z,60.72
2018-02-18T14:51:32.588Z,62.63
2018-02-18T14:57:23.116Z,61.63
2018-02-18T14:59:50.686Z,60.88
2018-02-18T15:02:18.200Z,60.94
2018-02-18T15:04:45.750Z,60.86
2018-02-18T15:07:13.293Z,60.86
2018-02-18T15:09:40.837Z,61.93
2018-02-18T15:12:08.353Z,61.14
2018-02-18T15:14:35.864Z,61.20
2018-02-18T15:17:03.385Z,60.75
2018-02-18T15:19:30.954Z,61.03
2018-02-18T15:21:58.492Z,61.17
2018-02-18T15:24:25.989Z,62.44
2018-02-18T15:26:53.568Z,61.81
2018-02-18T15:29:21.132Z,62.27
2018-02-18T15:31:48.655Z,61.66
2018-02-18T15:34:16.170Z,61.46
2018-02-18T15:36:44.515Z,62.57
2018-02-18T15:39:12.065Z,63.14
2018-02-18T15:41:39.579Z,63.54
2018-02-18T15:44:07.105Z,64.09
2018-02-18T15:46:34.726Z,64.57
2018-02-18T15:49:02.248Z,64.60
2018-02-18T15:51:29.805Z,64.95
2018-02-18T15:53:57.471Z,66.00
2018-02-18T15:56:25.953Z,66.72
2018-02-18T15:58:53.482Z,66.82
2018-02-18T16:01:20.998Z,66.61
2018-02-18T16:03:48.511Z,66.41
2018-02-18T16:06:16.308Z,66.70
2018-02-18T16:08:44.048Z,67.16
2018-02-18T16:11:12.732Z,68.02
2018-02-18T16:13:40.278Z,68.02
2018-02-18T16:16:07.811Z,69.44
2018-02-18T16:18:35.358Z,69.87
2018-02-18T16:21:03.142Z,70.08
2018-02-18T16:23:30.851Z,70.99
2018-02-18T16:25:58.466Z,70.76
2018-02-18T16:28:26.246Z,70.53
2018-02-18T16:30:54.083Z,70.71
2018-02-18T16:33:21.712Z,69.94
2018-02-18T16:35:49.268Z,70.84
2018-02-18T16:38:16.979Z,71.44
2018-02-18T16:40:44.599Z,71.09
2018-02-18T16:43:12.230Z,70.81
2018-02-18T16:45:39.862Z,70.95
2018-02-18T16:48:07.431Z,70.88
2018-02-18T16:50:35.016Z,70.56
2018-02-18T16:53:02.713Z,70.94
2018-02-18T16:55:30.272Z,71.01
2018-02-18T16:57:59.316Z,71.92
2018-02-18T17:00:27.072Z,71.68
2018-02-18T17:02:56.474Z,71.46
2018-02-18T17:05:24.028Z,71.45
2018-02-18T17:10:40.920Z,73.25
2018-02-18T17:13:18.391Z,73.66
2018-02-18T17:15:46.150Z,73.21
2018-02-18T17:18:13.843Z,73.30
2018-02-18T17:20:42.735Z,73.62
2018-02-18T17:23:10.431Z,73.64
2018-02-18T17:25:38.005Z,73.68
2018-02-18T17:30:41.786Z,74.50
2018-02-18T17:33:13.619Z,74.70
2018-02-18T17:35:41.340Z,75.48
2018-02-18T17:38:08.937Z,75.65
2018-02-18T17:40:36.572Z,76.02
2018-02-18T17:43:04.167Z,76.25
2018-02-18T17:45:31.709Z,76.46
2018-02-18T17:47:59.219Z,76.95
2018-02-18T17:50:26.737Z,77.24
2018-02-18T17:52:54.310Z,77.50
2018-02-18T17:55:22.023Z,77.96
2018-02-18T17:57:49.606Z,78.29
2018-02-18T18:00:17.236Z,78.82
2018-02-18T18:02:44.807Z,79.00
2018-02-18T18:05:12.581Z,79.52
2018-02-18T18:07:40.261Z,79.63
2018-02-18T18:10:07.965Z,80.12
2018-02-18T18:12:35.508Z,80.79
2018-02-18T18:15:03.057Z,80.52
2018-02-18T18:17:30.665Z,81.39
2018-02-18T18:19:58.246Z,80.86
2018-02-18T18:22:25.793Z,81.14
2018-02-18T18:24:53.402Z,81.01
2018-02-18T18:27:21.160Z,81.29
2018-02-18T18:29:48.912Z,81.51
2018-02-18T18:32:16.520Z,81.46
2018-02-18T18:34:44.139Z,81.62
2018-02-18T18:37:11.700Z,81.72
2018-02-18T18:39:39.294Z,82.04
2018-02-18T18:42:06.864Z,82.05
2018-02-18T18:44:34.575Z,81.81
2018-02-18T18:47:02.350Z,81.76
2018-02-18T18:49:29.861Z,81.89
2018-02-18T18:51:57.462Z,81.72
2018-02-18T18:54:24.998Z,81.87
2018-02-18T18:56:52.682Z,81.83
2018-02-18T18:59:20.238Z,82.22
2018-02-18T19:01:47.821Z,82.28
2018-02-18T19:04:16.306Z,82.39
2018-02-18T19:06:43.924Z,82.11
2018-02-18T19:09:11.490Z,82.85
2018-02-18T19:11:39.038Z,82.83
2018-02-18T19:14:06.567Z,82.73
2018-02-18T19:16:34.086Z,82.93
2018-02-18T19:19:01.755Z,82.96
2018-02-18T19:21:29.316Z,82.58
2018-02-18T19:23:56.823Z,82.72
2018-02-18T19:26:24.447Z,82.66
2018-02-18T19:28:52.070Z,82.55
2018-02-18T19:31:19.611Z,82.57
2018-02-18T19:33:47.147Z,82.83
2018-02-18T19:36:14.673Z,83.24
2018-02-18T19:38:42.223Z,83.23
2018-02-18T19:41:09.785Z,83.16
2018-02-18T19:43:37.365Z,83.45
2018-02-18T19:46:05.352Z,83.88
2018-02-18T19:48:32.924Z,83.93
2018-02-18T19:51:00.447Z,84.30
2018-02-18T19:53:27.992Z,84.38
2018-02-18T19:55:55.531Z,84.73
2018-02-18T19:58:23.102Z,84.77
2018-02-18T20:00:50.690Z,84.60
2018-02-18T20:03:18.242Z,84.90
2018-02-18T20:05:45.796Z,84.85
2018-02-18T20:08:13.320Z,85.06
2018-02-18T20:13:33.472Z,85.43
2018-02-18T20:16:01.111Z,85.67
2018-02-18T20:18:28.710Z,86.04
2018-02-18T20:20:56.345Z,86.22
2018-02-18T20:23:23.902Z,86.37
2018-02-18T20:25:51.439Z,86.49
2018-02-18T20:28:18.988Z,86.91
2018-02-18T20:30:46.536Z,86.76
2018-02-18T20:33:14.048Z,87.23
2018-02-18T20:35:41.587Z,87.54
2018-02-18T20:38:09.173Z,87.93
2018-02-18T20:40:36.789Z,87.70
2018-02-18T20:43:04.352Z,87.94
2018-02-18T20:45:31.880Z,88.15
2018-02-18T20:47:59.491Z,88.26
2018-02-18T20:50:26.989Z,88.43
2018-02-18T20:52:54.521Z,88.39
2018-02-18T20:55:22.645Z,88.43
2018-02-18T20:57:50.168Z,88.61
2018-02-18T21:00:17.928Z,88.35
2018-02-18T21:02:45.497Z,88.82
2018-02-18T21:05:13.093Z,89.03
2018-02-18T21:07:40.939Z,89.29
2018-02-18T21:10:08.652Z,88.93
2018-02-18T21:12:36.253Z,89.34
2018-02-18T21:15:04.089Z,89.87
2018-02-18T21:17:31.616Z,89.68
2018-02-18T21:19:59.280Z,89.95
2018-02-18T21:22:38.286Z,90.37
2018-02-18T21:25:06.416Z,90.14
2018-02-18T21:27:48.481Z,90.31
2018-02-18T21:30:18.282Z,90.15
2018-02-18T21:32:49.218Z,90.04
2018-02-18T21:35:17.564Z,90.22
2018-02-18T21:37:45.194Z,90.76
2018-02-18T21:40:12.736Z,90.85
2018-02-18T21:42:40.340Z,90.62
2018-02-18T21:45:07.961Z,90.38
2018-02-18T21:47:37.486Z,90.20
2018-02-18T21:50:05.015Z,90.37
2018-02-18T21:52:32.601Z,89.92
2018-02-18T21:55:00.133Z,89.89
2018-02-18T21:57:27.662Z,90.34
2018-02-18T21:59:55.295Z,89.49
2018-02-18T22:02:22.866Z,89.51
2018-02-18T22:04:50.487Z,89.23
2018-02-18T22:07:18.028Z,89.42
2018-02-18T22:09:45.574Z,89.13
2018-02-18T22:12:13.205Z,89.01
2018-02-18T22:14:40.747Z,89.47
2018-02-18T22:17:08.302Z,89.15
2018-02-18T22:19:35.859Z,89.57
2018-02-18T22:22:03.519Z,89.83
2018-02-18T22:24:31.015Z,89.67
2018-02-18T22:26:58.553Z,89.35
2018-02-18T22:29:26.090Z,88.98
2018-02-18T22:31:53.671Z,88.79
2018-02-18T22:34:21.231Z,89.21
2018-02-18T22:36:48.761Z,89.16
2018-02-18T22:39:16.327Z,89.57
2018-02-18T22:41:43.873Z,89.96
2018-02-18T22:44:11.425Z,89.56
2018-02-18T22:46:38.957Z,89.80
2018-02-18T22:49:06.489Z,90.19
2018-02-18T22:51:34.105Z,89.70
2018-02-18T22:54:01.699Z,90.26
2018-02-18T22:56:30.220Z,90.66
2018-02-18T22:58:57.799Z,89.91
2018-02-18T23:01:25.368Z,89.84
2018-02-18T23:03:53.004Z,90.11
2018-02-18T23:06:20.567Z,89.84
2018-02-18T23:08:48.127Z,89.96
2018-02-18T23:11:15.733Z,90.56
2018-02-18T23:13:43.253Z,90.27
2018-02-18T23:16:10.760Z,90.44
2018-02-18T23:18:38.333Z,90.35
2018-02-18T23:21:09.379Z,90.18
2018-02-18T23:23:36.980Z,90.43
2018-02-18T23:26:04.533Z,90.37
2018-02-18T23:28:32.043Z,89.95
2018-02-18T23:30:59.561Z,90.20
2018-02-18T23:33:27.107Z,89.63
2018-02-18T23:35:54.623Z,90.58
2018-02-18T23:38:22.175Z,90.35
2018-02-18T23:40:49.692Z,90.52
2018-02-18T23:43:17.233Z,90.52
2018-02-18T23:45:44.785Z,90.26
2018-02-18T23:48:12.344Z,90.72
2018-02-18T23:50:39.966Z,90.99
2018-02-18T23:53:07.527Z,91.02
2018-02-18T23:55:35.089Z,90.44
2018-02-18T23:58:02.919Z,90.46
